sensor_id;sensor_type;location;lat;lon;timestamp;P1;durP1;ratioP1;P2;durP2;ratioP2
793;SDS011;380;48.738;9.214;2024-03-02T00:00:10;12.82;;;10.20;;
793;SDS011;380;48.738;9.214;2024-03-02T00:02:41;13.10;;;9.98;;
793;SDS011;380;48.738;9.214;2024-03-02T00:05:07;14.80;;;10.80;;
793;SDS011;380;48.738;9.214;2024-03-02T00:07:33;12.50;;;10.23;;
793;SDS011;380;48.738;9.214;2024-03-02T00:09:59;13.77;;;11.13;;
793;SDS011;380;48.738;9.214;2024-03-02T00:12:25;13.20;;;11.27;;
793;SDS011;380;48.738;9.214;2024-03-02T00:14:51;14.98;;;10.43;;
793;SDS011;380;48.738;9.214;2024-03-02T00:17:20;14.18;;;10.32;;
793;SDS011;380;48.738;9.214;2024-03-02T00:19:47;11.82;;;9.60;;
793;SDS011;380;48.738;9.214;2024-03-02T00:22:13;13.27;;;10.45;;
793;SDS011;380;48.738;9.214;2024-03-02T00:24:39;10.85;;;9.73;;
793;SDS011;380;48.738;9.214;2024-03-02T00:27:05;12.70;;;9.93;;
793;SDS011;380;48.738;9.214;2024-03-02T00:29:36;11.82;;;10.30;;
793;SDS011;380;48.738;9.214;2024-03-02T00:32:02;11.23;;;9.05;;
793;SDS011;380;48.738;9.214;2024-03-02T00:34:28;12.55;;;10.48;;
793;SDS011;380;48.738;9.214;2024-03-02T00:36:57;12.55;;;10.32;;
793;SDS011;380;48.738;9.214;2024-03-02T00:39:24;15.50;;;11.10;;
793;SDS011;380;48.738;9.214;2024-03-02T00:41:50;13.35;;;10.02;;
793;SDS011;380;48.738;9.214;2024-03-02T00:44:16;10.38;;;9.27;;
793;SDS011;380;48.738;9.214;2024-03-02T00:46:45;10.90;;;9.50;;
793;SDS011;380;48.738;9.214;2024-03-02T00:51:37;16.23;;;10.45;;
793;SDS011;380;48.738;9.214;2024-03-02T00:54:07;13.63;;;9.45;;
793;SDS011;380;48.738;9.214;2024-03-02T00:56:34;12.95;;;10.13;;
793;SDS011;380;48.738;9.214;2024-03-02T00:59:00;14.55;;;9.90;;
793;SDS011;380;48.738;9.214;2024-03-02T01:01:26;11.63;;;9.85;;
793;SDS011;380;48.738;9.214;2024-03-02T01:03:52;11.02;;;8.90;;
793;SDS011;380;48.738;9.214;2024-03-02T01:06:18;13.73;;;10.05;;
793;SDS011;380;48.738;9.214;2024-03-02T01:08:44;15.52;;;9.55;;
793;SDS011;380;48.738;9.214;2024-03-02T01:11:11;13.68;;;9.98;;
793;SDS011;380;48.738;9.214;2024-03-02T01:13:37;11.30;;;8.50;;
793;SDS011;380;48.738;9.214;2024-03-02T01:16:03;11.13;;;9.60;;
793;SDS011;380;48.738;9.214;2024-03-02T01:18:29;12.20;;;9.93;;
793;SDS011;380;48.738;9.214;2024-03-02T01:20:55;13.65;;;8.55;;
793;SDS011;380;48.738;9.214;2024-03-02T01:23:22;13.32;;;10.20;;
793;SDS011;380;48.738;9.214;2024-03-02T01:25:48;10.65;;;8.20;;
793;SDS011;380;48.738;9.214;2024-03-02T01:28:14;9.25;;;8.15;;
793;SDS011;380;48.738;9.214;2024-03-02T01:30:40;11.20;;;8.82;;
793;SDS011;380;48.738;9.214;2024-03-02T01:33:06;11.52;;;9.88;;
793;SDS011;380;48.738;9.214;2024-03-02T01:35:32;12.25;;;9.50;;
793;SDS011;380;48.738;9.214;2024-03-02T01:37:59;12.27;;;9.10;;
793;SDS011;380;48.738;9.214;2024-03-02T01:40:25;11.13;;;7.97;;
793;SDS011;380;48.738;9.214;2024-03-02T01:42:52;10.98;;;7.95;;
793;SDS011;380;48.738;9.214;2024-03-02T01:45:19;9.73;;;8.30;;
793;SDS011;380;48.738;9.214;2024-03-02T01:47:45;12.57;;;9.63;;
793;SDS011;380;48.738;9.214;2024-03-02T01:50:11;13.18;;;8.63;;
793;SDS011;380;48.738;9.214;2024-03-02T01:52:38;12.35;;;8.40;;
793;SDS011;380;48.738;9.214;2024-03-02T01:55:04;11.68;;;10.48;;
793;SDS011;380;48.738;9.214;2024-03-02T01:57:31;11.45;;;8.18;;
793;SDS011;380;48.738;9.214;2024-03-02T01:59:57;10.43;;;7.90;;
793;SDS011;380;48.738;9.214;2024-03-02T02:02:23;10.02;;;8.90;;
793;SDS011;380;48.738;9.214;2024-03-02T02:04:49;14.32;;;10.13;;
793;SDS011;380;48.738;9.214;2024-03-02T02:07:15;11.05;;;8.13;;
793;SDS011;380;48.738;9.214;2024-03-02T02:09:41;10.43;;;8.65;;
793;SDS011;380;48.738;9.214;2024-03-02T02:12:07;10.80;;;7.65;;
793;SDS011;380;48.738;9.214;2024-03-02T02:14:33;10.68;;;8.43;;
793;SDS011;380;48.738;9.214;2024-03-02T02:16:59;9.23;;;7.50;;
793;SDS011;380;48.738;9.214;2024-03-02T02:19:25;8.60;;;7.35;;
793;SDS011;380;48.738;9.214;2024-03-02T02:21:51;9.93;;;8.60;;
793;SDS011;380;48.738;9.214;2024-03-02T02:24:17;11.45;;;8.00;;
793;SDS011;380;48.738;9.214;2024-03-02T02:26:43;12.80;;;9.30;;
793;SDS011;380;48.738;9.214;2024-03-02T02:29:09;12.13;;;8.57;;
793;SDS011;380;48.738;9.214;2024-03-02T02:31:38;9.73;;;7.88;;
793;SDS011;380;48.738;9.214;2024-03-02T02:34:05;10.05;;;8.00;;
793;SDS011;380;48.738;9.214;2024-03-02T02:36:31;10.80;;;8.77;;
793;SDS011;380;48.738;9.214;2024-03-02T02:38:57;9.20;;;7.32;;
793;SDS011;380;48.738;9.214;2024-03-02T02:41:24;10.70;;;8.48;;
793;SDS011;380;48.738;9.214;2024-03-02T02:43:49;9.90;;;7.90;;
793;SDS011;380;48.738;9.214;2024-03-02T02:46:15;9.48;;;7.93;;
793;SDS011;380;48.738;9.214;2024-03-02T02:48:41;12.13;;;9.43;;
793;SDS011;380;48.738;9.214;2024-03-02T02:51:07;11.35;;;8.68;;
793;SDS011;380;48.738;9.214;2024-03-02T02:53:33;11.02;;;7.72;;
793;SDS011;380;48.738;9.214;2024-03-02T02:56:00;10.20;;;8.52;;
793;SDS011;380;48.738;9.214;2024-03-02T02:58:26;9.32;;;7.43;;
793;SDS011;380;48.738;9.214;2024-03-02T03:00:52;11.95;;;9.23;;
793;SDS011;380;48.738;9.214;2024-03-02T03:03:21;15.93;;;9.75;;
793;SDS011;380;48.738;9.214;2024-03-02T03:05:48;12.27;;;8.63;;
793;SDS011;380;48.738;9.214;2024-03-02T03:08:14;10.35;;;8.30;;
793;SDS011;380;48.738;9.214;2024-03-02T03:10:41;9.10;;;7.13;;
793;SDS011;380;48.738;9.214;2024-03-02T03:13:07;10.05;;;7.78;;
793;SDS011;380;48.738;9.214;2024-03-02T03:15:34;11.02;;;8.57;;
793;SDS011;380;48.738;9.214;2024-03-02T03:18:01;8.90;;;7.97;;
793;SDS011;380;48.738;9.214;2024-03-02T03:20:28;11.82;;;9.43;;
793;SDS011;380;48.738;9.214;2024-03-02T03:22:54;9.85;;;8.90;;
793;SDS011;380;48.738;9.214;2024-03-02T03:25:20;13.57;;;9.48;;
793;SDS011;380;48.738;9.214;2024-03-02T03:27:46;11.10;;;9.48;;
793;SDS011;380;48.738;9.214;2024-03-02T03:30:12;10.25;;;8.68;;
793;SDS011;380;48.738;9.214;2024-03-02T03:32:38;10.88;;;9.40;;
793;SDS011;380;48.738;9.214;2024-03-02T03:35:04;15.75;;;8.88;;
793;SDS011;380;48.738;9.214;2024-03-02T03:37:31;12.05;;;8.32;;
793;SDS011;380;48.738;9.214;2024-03-02T03:40:00;11.70;;;8.85;;
793;SDS011;380;48.738;9.214;2024-03-02T03:42:27;10.93;;;8.48;;
793;SDS011;380;48.738;9.214;2024-03-02T03:44:53;15.88;;;8.05;;
793;SDS011;380;48.738;9.214;2024-03-02T03:47:19;12.48;;;9.05;;
793;SDS011;380;48.738;9.214;2024-03-02T03:49:45;15.50;;;10.25;;
793;SDS011;380;48.738;9.214;2024-03-02T03:52:11;12.38;;;9.48;;
793;SDS011;380;48.738;9.214;2024-03-02T03:54:37;11.98;;;8.82;;
793;SDS011;380;48.738;9.214;2024-03-02T03:57:04;18.38;;;11.18;;
793;SDS011;380;48.738;9.214;2024-03-02T03:59:30;10.27;;;8.88;;
793;SDS011;380;48.738;9.214;2024-03-02T04:01:56;10.40;;;8.85;;
793;SDS011;380;48.738;9.214;2024-03-02T04:04:22;9.50;;;8.48;;
793;SDS011;380;48.738;9.214;2024-03-02T04:06:48;10.13;;;8.65;;
793;SDS011;380;48.738;9.214;2024-03-02T04:09:14;12.27;;;8.48;;
793;SDS011;380;48.738;9.214;2024-03-02T04:11:40;11.30;;;8.85;;
793;SDS011;380;48.738;9.214;2024-03-02T04:14:06;15.57;;;10.35;;
793;SDS011;380;48.738;9.214;2024-03-02T04:16:31;13.70;;;9.63;;
793;SDS011;380;48.738;9.214;2024-03-02T04:18:58;13.43;;;9.43;;
793;SDS011;380;48.738;9.214;2024-03-02T04:21:24;15.15;;;10.35;;
793;SDS011;380;48.738;9.214;2024-03-02T04:23:50;11.60;;;9.48;;
793;SDS011;380;48.738;9.214;2024-03-02T04:26:16;12.25;;;10.30;;
793;SDS011;380;48.738;9.214;2024-03-02T04:28:47;13.82;;;10.25;;
793;SDS011;380;48.738;9.214;2024-03-02T04:31:12;14.10;;;10.35;;
793;SDS011;380;48.738;9.214;2024-03-02T04:33:38;15.75;;;9.80;;
793;SDS011;380;48.738;9.214;2024-03-02T04:36:04;15.07;;;9.18;;
793;SDS011;380;48.738;9.214;2024-03-02T04:38:33;15.00;;;9.75;;
793;SDS011;380;48.738;9.214;2024-03-02T04:40:59;14.27;;;10.25;;
793;SDS011;380;48.738;9.214;2024-03-02T04:43:25;12.88;;;10.18;;
793;SDS011;380;48.738;9.214;2024-03-02T04:45:51;13.05;;;9.65;;
793;SDS011;380;48.738;9.214;2024-03-02T04:48:17;13.05;;;9.27;;
793;SDS011;380;48.738;9.214;2024-03-02T04:50:44;13.88;;;9.05;;
793;SDS011;380;48.738;9.214;2024-03-02T04:53:10;16.55;;;9.85;;
793;SDS011;380;48.738;9.214;2024-03-02T04:55:36;12.85;;;9.60;;
793;SDS011;380;48.738;9.214;2024-03-02T04:58:04;14.35;;;9.82;;
793;SDS011;380;48.738;9.214;2024-03-02T05:00:31;11.25;;;9.27;;
793;SDS011;380;48.738;9.214;2024-03-02T05:02:57;13.07;;;9.40;;
793;SDS011;380;48.738;9.214;2024-03-02T05:05:23;12.98;;;8.93;;
793;SDS011;380;48.738;9.214;2024-03-02T05:07:49;14.23;;;10.38;;
793;SDS011;380;48.738;9.214;2024-03-02T05:10:15;10.73;;;9.25;;
793;SDS011;380;48.738;9.214;2024-03-02T05:12:41;17.65;;;10.93;;
793;SDS011;380;48.738;9.214;2024-03-02T05:15:27;15.30;;;11.02;;
793;SDS011;380;48.738;9.214;2024-03-02T05:17:53;12.43;;;10.25;;
793;SDS011;380;48.738;9.214;2024-03-02T05:20:19;13.05;;;10.65;;
793;SDS011;380;48.738;9.214;2024-03-02T05:22:45;13.57;;;9.50;;
793;SDS011;380;48.738;9.214;2024-03-02T05:25:12;12.07;;;10.15;;
793;SDS011;380;48.738;9.214;2024-03-02T05:27:38;17.23;;;10.25;;
793;SDS011;380;48.738;9.214;2024-03-02T05:30:04;13.43;;;10.32;;
793;SDS011;380;48.738;9.214;2024-03-02T05:32:31;14.52;;;10.50;;
793;SDS011;380;48.738;9.214;2024-03-02T05:34:57;14.40;;;10.57;;
793;SDS011;380;48.738;9.214;2024-03-02T05:37:23;15.60;;;11.10;;
793;SDS011;380;48.738;9.214;2024-03-02T05:39:49;14.57;;;11.30;;
793;SDS011;380;48.738;9.214;2024-03-02T05:42:15;16.00;;;10.38;;
793;SDS011;380;48.738;9.214;2024-03-02T05:44:41;16.25;;;11.65;;
793;SDS011;380;48.738;9.214;2024-03-02T05:47:07;12.70;;;11.32;;
793;SDS011;380;48.738;9.214;2024-03-02T05:49:34;18.58;;;12.60;;
793;SDS011;380;48.738;9.214;2024-03-02T05:51:59;14.35;;;11.85;;
793;SDS011;380;48.738;9.214;2024-03-02T05:54:25;19.27;;;12.82;;
793;SDS011;380;48.738;9.214;2024-03-02T05:56:51;15.88;;;12.52;;
793;SDS011;380;48.738;9.214;2024-03-02T05:59:17;14.27;;;12.57;;
793;SDS011;380;48.738;9.214;2024-03-02T06:01:44;15.45;;;12.38;;
793;SDS011;380;48.738;9.214;2024-03-02T06:04:11;13.70;;;11.98;;
793;SDS011;380;48.738;9.214;2024-03-02T06:06:37;17.17;;;12.70;;
793;SDS011;380;48.738;9.214;2024-03-02T06:09:04;18.60;;;11.93;;
793;SDS011;380;48.738;9.214;2024-03-02T06:11:32;17.20;;;14.05;;
793;SDS011;380;48.738;9.214;2024-03-02T06:13:58;19.58;;;13.25;;
793;SDS011;380;48.738;9.214;2024-03-02T06:16:24;17.80;;;12.40;;
793;SDS011;380;48.738;9.214;2024-03-02T06:18:50;15.35;;;12.18;;
793;SDS011;380;48.738;9.214;2024-03-02T06:21:16;16.55;;;11.52;;
793;SDS011;380;48.738;9.214;2024-03-02T06:23:43;13.55;;;11.23;;
793;SDS011;380;48.738;9.214;2024-03-02T06:26:09;14.10;;;11.60;;
793;SDS011;380;48.738;9.214;2024-03-02T06:28:35;19.35;;;10.57;;
793;SDS011;380;48.738;9.214;2024-03-02T06:31:01;12.02;;;10.15;;
793;SDS011;380;48.738;9.214;2024-03-02T06:33:27;14.65;;;9.98;;
793;SDS011;380;48.738;9.214;2024-03-02T06:35:53;10.68;;;9.57;;
793;SDS011;380;48.738;9.214;2024-03-02T06:38:19;12.43;;;9.75;;
793;SDS011;380;48.738;9.214;2024-03-02T06:40:45;13.60;;;10.18;;
793;SDS011;380;48.738;9.214;2024-03-02T06:43:11;13.07;;;8.98;;
793;SDS011;380;48.738;9.214;2024-03-02T06:45:37;12.60;;;9.82;;
793;SDS011;380;48.738;9.214;2024-03-02T06:48:03;14.77;;;10.77;;
793;SDS011;380;48.738;9.214;2024-03-02T06:50:29;12.75;;;10.48;;
793;SDS011;380;48.738;9.214;2024-03-02T06:52:55;14.60;;;11.02;;
793;SDS011;380;48.738;9.214;2024-03-02T06:55:21;15.98;;;11.43;;
793;SDS011;380;48.738;9.214;2024-03-02T06:57:49;15.00;;;11.57;;
793;SDS011;380;48.738;9.214;2024-03-02T07:00:15;15.15;;;10.80;;
793;SDS011;380;48.738;9.214;2024-03-02T07:02:42;13.45;;;11.00;;
793;SDS011;380;48.738;9.214;2024-03-02T07:05:10;17.77;;;11.02;;
793;SDS011;380;48.738;9.214;2024-03-02T07:07:36;14.63;;;11.68;;
793;SDS011;380;48.738;9.214;2024-03-02T07:10:03;13.43;;;11.32;;
793;SDS011;380;48.738;9.214;2024-03-02T07:12:29;16.63;;;12.68;;
793;SDS011;380;48.738;9.214;2024-03-02T07:14:56;15.07;;;9.98;;
793;SDS011;380;48.738;9.214;2024-03-02T07:17:28;13.43;;;10.77;;
793;SDS011;380;48.738;9.214;2024-03-02T07:19:54;15.18;;;10.70;;
793;SDS011;380;48.738;9.214;2024-03-02T07:22:20;12.57;;;9.38;;
793;SDS011;380;48.738;9.214;2024-03-02T07:24:46;16.35;;;9.88;;
793;SDS011;380;48.738;9.214;2024-03-02T07:27:13;13.13;;;9.68;;
793;SDS011;380;48.738;9.214;2024-03-02T07:29:39;12.43;;;9.82;;
793;SDS011;380;48.738;9.214;2024-03-02T07:32:05;10.80;;;8.85;;
793;SDS011;380;48.738;9.214;2024-03-02T07:34:31;15.05;;;10.85;;
793;SDS011;380;48.738;9.214;2024-03-02T07:36:57;13.18;;;9.93;;
793;SDS011;380;48.738;9.214;2024-03-02T07:39:23;12.05;;;8.98;;
793;SDS011;380;48.738;9.214;2024-03-02T07:41:50;11.27;;;8.77;;
793;SDS011;380;48.738;9.214;2024-03-02T07:44:16;11.95;;;9.75;;
793;SDS011;380;48.738;9.214;2024-03-02T07:46:44;10.85;;;7.95;;
793;SDS011;380;48.738;9.214;2024-03-02T07:49:11;11.00;;;8.15;;
793;SDS011;380;48.738;9.214;2024-03-02T07:51:38;8.93;;;7.60;;
793;SDS011;380;48.738;9.214;2024-03-02T07:54:04;8.25;;;6.95;;
793;SDS011;380;48.738;9.214;2024-03-02T07:56:30;10.32;;;7.90;;
793;SDS011;380;48.738;9.214;2024-03-02T07:58:56;8.88;;;6.97;;
793;SDS011;380;48.738;9.214;2024-03-02T08:01:26;7.47;;;6.25;;
793;SDS011;380;48.738;9.214;2024-03-02T08:03:52;9.35;;;6.80;;
793;SDS011;380;48.738;9.214;2024-03-02T08:06:18;8.15;;;6.22;;
793;SDS011;380;48.738;9.214;2024-03-02T08:08:46;7.88;;;5.95;;
793;SDS011;380;48.738;9.214;2024-03-02T08:11:12;11.50;;;6.35;;
793;SDS011;380;48.738;9.214;2024-03-02T08:13:38;6.93;;;6.22;;
793;SDS011;380;48.738;9.214;2024-03-02T08:16:04;8.63;;;6.72;;
793;SDS011;380;48.738;9.214;2024-03-02T08:18:34;9.05;;;6.75;;
793;SDS011;380;48.738;9.214;2024-03-02T08:21:00;7.22;;;6.18;;
793;SDS011;380;48.738;9.214;2024-03-02T08:23:26;8.13;;;6.50;;
793;SDS011;380;48.738;9.214;2024-03-02T08:25:52;9.77;;;7.55;;
793;SDS011;380;48.738;9.214;2024-03-02T08:28:18;9.32;;;7.55;;
793;SDS011;380;48.738;9.214;2024-03-02T08:30:44;9.93;;;6.70;;
793;SDS011;380;48.738;9.214;2024-03-02T08:33:10;8.30;;;7.32;;
793;SDS011;380;48.738;9.214;2024-03-02T08:35:36;8.18;;;6.18;;
793;SDS011;380;48.738;9.214;2024-03-02T08:38:03;7.82;;;6.22;;
793;SDS011;380;48.738;9.214;2024-03-02T08:40:29;9.68;;;7.53;;
793;SDS011;380;48.738;9.214;2024-03-02T08:42:55;8.85;;;6.47;;
793;SDS011;380;48.738;9.214;2024-03-02T08:45:21;9.73;;;6.53;;
793;SDS011;380;48.738;9.214;2024-03-02T08:47:48;9.48;;;5.72;;
793;SDS011;380;48.738;9.214;2024-03-02T08:50:14;7.00;;;6.30;;
793;SDS011;380;48.738;9.214;2024-03-02T08:52:39;8.32;;;6.78;;
793;SDS011;380;48.738;9.214;2024-03-02T08:55:06;8.60;;;6.22;;
793;SDS011;380;48.738;9.214;2024-03-02T08:57:32;7.53;;;6.45;;
793;SDS011;380;48.738;9.214;2024-03-02T08:59:58;6.88;;;5.65;;
793;SDS011;380;48.738;9.214;2024-03-02T09:02:25;6.50;;;5.13;;
793;SDS011;380;48.738;9.214;2024-03-02T09:04:51;6.82;;;5.55;;
793;SDS011;380;48.738;9.214;2024-03-02T09:07:17;6.60;;;5.43;;
793;SDS011;380;48.738;9.214;2024-03-02T09:09:43;6.65;;;4.93;;
793;SDS011;380;48.738;9.214;2024-03-02T09:12:09;6.80;;;5.72;;
793;SDS011;380;48.738;9.214;2024-03-02T09:14:36;6.78;;;5.20;;
793;SDS011;380;48.738;9.214;2024-03-02T09:17:02;7.63;;;5.30;;
793;SDS011;380;48.738;9.214;2024-03-02T09:19:28;7.13;;;5.32;;
793;SDS011;380;48.738;9.214;2024-03-02T09:21:54;6.80;;;5.60;;
793;SDS011;380;48.738;9.214;2024-03-02T09:24:23;7.18;;;4.82;;
793;SDS011;380;48.738;9.214;2024-03-02T09:26:49;6.75;;;5.72;;
793;SDS011;380;48.738;9.214;2024-03-02T09:29:15;7.13;;;5.57;;
793;SDS011;380;48.738;9.214;2024-03-02T09:31:42;8.60;;;7.30;;
793;SDS011;380;48.738;9.214;2024-03-02T09:34:08;6.93;;;5.53;;
793;SDS011;380;48.738;9.214;2024-03-02T09:36:34;6.38;;;5.78;;
793;SDS011;380;48.738;9.214;2024-03-02T09:39:00;6.32;;;5.30;;
793;SDS011;380;48.738;9.214;2024-03-02T09:41:26;5.93;;;4.88;;
793;SDS011;380;48.738;9.214;2024-03-02T09:43:52;6.63;;;5.30;;
793;SDS011;380;48.738;9.214;2024-03-02T09:46:18;6.70;;;4.90;;
793;SDS011;380;48.738;9.214;2024-03-02T09:48:45;5.10;;;4.28;;
793;SDS011;380;48.738;9.214;2024-03-02T09:51:11;5.82;;;4.82;;
793;SDS011;380;48.738;9.214;2024-03-02T09:53:37;6.32;;;4.85;;
793;SDS011;380;48.738;9.214;2024-03-02T09:56:04;6.28;;;4.85;;
793;SDS011;380;48.738;9.214;2024-03-02T09:58:30;6.10;;;5.07;;
793;SDS011;380;48.738;9.214;2024-03-02T10:00:56;7.22;;;4.80;;
793;SDS011;380;48.738;9.214;2024-03-02T10:03:22;6.10;;;5.10;;
793;SDS011;380;48.738;9.214;2024-03-02T10:05:52;5.13;;;4.63;;
793;SDS011;380;48.738;9.214;2024-03-02T10:08:17;5.25;;;4.63;;
793;SDS011;380;48.738;9.214;2024-03-02T10:10:43;7.22;;;5.20;;
793;SDS011;380;48.738;9.214;2024-03-02T10:13:10;6.45;;;4.63;;
793;SDS011;380;48.738;9.214;2024-03-02T10:15:36;6.25;;;4.68;;
793;SDS011;380;48.738;9.214;2024-03-02T10:18:03;5.13;;;3.90;;
793;SDS011;380;48.738;9.214;2024-03-02T10:20:29;5.72;;;4.88;;
793;SDS011;380;48.738;9.214;2024-03-02T10:25:36;6.93;;;5.07;;
793;SDS011;380;48.738;9.214;2024-03-02T10:28:02;4.65;;;4.13;;
793;SDS011;380;48.738;9.214;2024-03-02T10:30:30;4.95;;;4.38;;
793;SDS011;380;48.738;9.214;2024-03-02T10:32:56;6.35;;;4.93;;
793;SDS011;380;48.738;9.214;2024-03-02T10:35:22;5.75;;;4.80;;
793;SDS011;380;48.738;9.214;2024-03-02T10:37:49;5.53;;;4.72;;
793;SDS011;380;48.738;9.214;2024-03-02T10:40:15;5.80;;;4.40;;
793;SDS011;380;48.738;9.214;2024-03-02T10:42:41;5.38;;;3.92;;
793;SDS011;380;48.738;9.214;2024-03-02T10:45:09;5.38;;;4.82;;
793;SDS011;380;48.738;9.214;2024-03-02T10:47:36;5.05;;;4.53;;
793;SDS011;380;48.738;9.214;2024-03-02T10:50:04;6.38;;;4.25;;
793;SDS011;380;48.738;9.214;2024-03-02T10:52:34;5.03;;;4.45;;
793;SDS011;380;48.738;9.214;2024-03-02T10:55:00;5.05;;;3.85;;
793;SDS011;380;48.738;9.214;2024-03-02T10:57:26;4.82;;;3.83;;
793;SDS011;380;48.738;9.214;2024-03-02T10:59:53;5.18;;;3.50;;
793;SDS011;380;48.738;9.214;2024-03-02T11:02:22;4.30;;;3.65;;
793;SDS011;380;48.738;9.214;2024-03-02T11:04:50;3.80;;;3.17;;
793;SDS011;380;48.738;9.214;2024-03-02T11:07:17;2.78;;;2.45;;
793;SDS011;380;48.738;9.214;2024-03-02T11:12:39;4.15;;;2.35;;
793;SDS011;380;48.738;9.214;2024-03-02T11:15:10;4.85;;;2.83;;
793;SDS011;380;48.738;9.214;2024-03-02T11:17:38;3.15;;;2.05;;
793;SDS011;380;48.738;9.214;2024-03-02T11:20:05;3.72;;;2.30;;
793;SDS011;380;48.738;9.214;2024-03-02T11:22:33;2.70;;;1.73;;
793;SDS011;380;48.738;9.214;2024-03-02T11:25:00;2.55;;;1.38;;
793;SDS011;380;48.738;9.214;2024-03-02T11:30:47;2.67;;;1.42;;
793;SDS011;380;48.738;9.214;2024-03-02T11:32:56;2.58;;;1.58;;
793;SDS011;380;48.738;9.214;2024-03-02T11:35:23;2.33;;;1.60;;
793;SDS011;380;48.738;9.214;2024-03-02T11:37:50;2.38;;;1.48;;
793;SDS011;380;48.738;9.214;2024-03-02T11:40:21;3.00;;;1.42;;
793;SDS011;380;48.738;9.214;2024-03-02T11:45:16;2.35;;;1.75;;
793;SDS011;380;48.738;9.214;2024-03-02T11:47:46;2.88;;;1.38;;
793;SDS011;380;48.738;9.214;2024-03-02T11:50:15;4.57;;;1.65;;
793;SDS011;380;48.738;9.214;2024-03-02T11:52:41;2.78;;;1.58;;
793;SDS011;380;48.738;9.214;2024-03-02T11:55:08;2.13;;;1.27;;
793;SDS011;380;48.738;9.214;2024-03-02T11:57:37;2.20;;;1.33;;
793;SDS011;380;48.738;9.214;2024-03-02T12:00:03;2.85;;;1.67;;
793;SDS011;380;48.738;9.214;2024-03-02T12:02:30;1.98;;;0.88;;
793;SDS011;380;48.738;9.214;2024-03-02T12:04:56;1.45;;;0.88;;
793;SDS011;380;48.738;9.214;2024-03-02T12:07:23;2.13;;;1.10;;
793;SDS011;380;48.738;9.214;2024-03-02T12:09:49;3.33;;;2.55;;
793;SDS011;380;48.738;9.214;2024-03-02T12:12:24;1.42;;;0.93;;
793;SDS011;380;48.738;9.214;2024-03-02T12:14:51;2.78;;;1.30;;
793;SDS011;380;48.738;9.214;2024-03-02T12:17:20;2.00;;;1.08;;
793;SDS011;380;48.738;9.214;2024-03-02T12:19:46;2.03;;;1.27;;
793;SDS011;380;48.738;9.214;2024-03-02T12:22:12;2.65;;;1.10;;
793;SDS011;380;48.738;9.214;2024-03-02T12:24:38;1.83;;;1.25;;
793;SDS011;380;48.738;9.214;2024-03-02T12:27:04;2.83;;;1.58;;
793;SDS011;380;48.738;9.214;2024-03-02T12:29:30;2.17;;;0.98;;
793;SDS011;380;48.738;9.214;2024-03-02T12:31:56;1.55;;;0.85;;
793;SDS011;380;48.738;9.214;2024-03-02T12:34:22;2.13;;;1.10;;
793;SDS011;380;48.738;9.214;2024-03-02T12:36:49;2.63;;;1.40;;
793;SDS011;380;48.738;9.214;2024-03-02T12:39:18;1.88;;;1.20;;
793;SDS011;380;48.738;9.214;2024-03-02T12:41:44;1.95;;;0.95;;
793;SDS011;380;48.738;9.214;2024-03-02T12:44:10;1.48;;;0.75;;
793;SDS011;380;48.738;9.214;2024-03-02T12:46:36;1.50;;;0.80;;
793;SDS011;380;48.738;9.214;2024-03-02T12:49:07;1.67;;;0.90;;
793;SDS011;380;48.738;9.214;2024-03-02T12:51:34;2.03;;;1.08;;
793;SDS011;380;48.738;9.214;2024-03-02T12:54:01;1.10;;;0.60;;
793;SDS011;380;48.738;9.214;2024-03-02T12:56:27;1.83;;;0.75;;
793;SDS011;380;48.738;9.214;2024-03-02T12:58:53;1.48;;;0.88;;
793;SDS011;380;48.738;9.214;2024-03-02T13:01:19;1.05;;;0.45;;
793;SDS011;380;48.738;9.214;2024-03-02T13:03:47;1.38;;;0.73;;
793;SDS011;380;48.738;9.214;2024-03-02T13:06:13;1.20;;;0.60;;
793;SDS011;380;48.738;9.214;2024-03-02T13:08:39;2.97;;;0.85;;
793;SDS011;380;48.738;9.214;2024-03-02T13:11:05;1.90;;;0.90;;
793;SDS011;380;48.738;9.214;2024-03-02T13:13:32;1.48;;;0.60;;
793;SDS011;380;48.738;9.214;2024-03-02T13:15:58;1.90;;;0.90;;
793;SDS011;380;48.738;9.214;2024-03-02T13:18:24;1.40;;;0.65;;
793;SDS011;380;48.738;9.214;2024-03-02T13:20:51;1.83;;;0.80;;
793;SDS011;380;48.738;9.214;2024-03-02T13:23:17;1.40;;;0.63;;
793;SDS011;380;48.738;9.214;2024-03-02T13:25:43;1.73;;;0.88;;
793;SDS011;380;48.738;9.214;2024-03-02T13:28:12;1.58;;;0.73;;
793;SDS011;380;48.738;9.214;2024-03-02T13:30:38;1.50;;;0.80;;
793;SDS011;380;48.738;9.214;2024-03-02T13:33:04;2.08;;;0.75;;
793;SDS011;380;48.738;9.214;2024-03-02T13:35:30;1.50;;;0.70;;
793;SDS011;380;48.738;9.214;2024-03-02T13:37:56;2.78;;;1.30;;
793;SDS011;380;48.738;9.214;2024-03-02T13:40:22;1.65;;;0.90;;
793;SDS011;380;48.738;9.214;2024-03-02T13:42:48;1.52;;;0.75;;
793;SDS011;380;48.738;9.214;2024-03-02T13:45:15;2.20;;;0.88;;
793;SDS011;380;48.738;9.214;2024-03-02T13:47:42;1.25;;;0.70;;
793;SDS011;380;48.738;9.214;2024-03-02T13:50:08;2.08;;;0.75;;
793;SDS011;380;48.738;9.214;2024-03-02T13:52:34;2.30;;;1.35;;
793;SDS011;380;48.738;9.214;2024-03-02T13:55:00;2.65;;;1.05;;
793;SDS011;380;48.738;9.214;2024-03-02T13:57:26;2.03;;;0.80;;
793;SDS011;380;48.738;9.214;2024-03-02T13:59:52;2.05;;;0.90;;
793;SDS011;380;48.738;9.214;2024-03-02T14:02:19;2.10;;;1.00;;
793;SDS011;380;48.738;9.214;2024-03-02T14:04:45;1.77;;;0.80;;
793;SDS011;380;48.738;9.214;2024-03-02T14:07:11;1.33;;;0.52;;
793;SDS011;380;48.738;9.214;2024-03-02T14:09:37;1.45;;;0.70;;
793;SDS011;380;48.738;9.214;2024-03-02T14:12:03;2.10;;;0.98;;
793;SDS011;380;48.738;9.214;2024-03-02T14:14:30;0.82;;;0.52;;
793;SDS011;380;48.738;9.214;2024-03-02T14:16:56;2.65;;;1.00;;
793;SDS011;380;48.738;9.214;2024-03-02T14:19:25;1.50;;;0.75;;
793;SDS011;380;48.738;9.214;2024-03-02T14:21:51;1.67;;;1.08;;
793;SDS011;380;48.738;9.214;2024-03-02T14:24:17;1.98;;;1.17;;
793;SDS011;380;48.738;9.214;2024-03-02T14:26:43;1.27;;;0.65;;
793;SDS011;380;48.738;9.214;2024-03-02T14:29:09;1.42;;;0.90;;
793;SDS011;380;48.738;9.214;2024-03-02T14:31:38;1.02;;;0.40;;
793;SDS011;380;48.738;9.214;2024-03-02T14:34:04;1.52;;;0.50;;
793;SDS011;380;48.738;9.214;2024-03-02T14:36:30;1.30;;;0.70;;
793;SDS011;380;48.738;9.214;2024-03-02T14:38:56;1.70;;;0.60;;
793;SDS011;380;48.738;9.214;2024-03-02T14:41:22;1.27;;;0.57;;
793;SDS011;380;48.738;9.214;2024-03-02T14:43:49;0.95;;;0.50;;
793;SDS011;380;48.738;9.214;2024-03-02T14:46:15;0.80;;;0.40;;
793;SDS011;380;48.738;9.214;2024-03-02T14:48:41;0.60;;;0.30;;
793;SDS011;380;48.738;9.214;2024-03-02T14:51:09;0.85;;;0.57;;
793;SDS011;380;48.738;9.214;2024-03-02T14:53:35;1.20;;;0.50;;
793;SDS011;380;48.738;9.214;2024-03-02T14:56:02;1.48;;;0.60;;
793;SDS011;380;48.738;9.214;2024-03-02T14:58:29;0.38;;;0.15;;
793;SDS011;380;48.738;9.214;2024-03-02T15:00:55;1.27;;;0.50;;
793;SDS011;380;48.738;9.214;2024-03-02T15:03:21;0.75;;;0.43;;
793;SDS011;380;48.738;9.214;2024-03-02T15:05:47;0.45;;;0.22;;
793;SDS011;380;48.738;9.214;2024-03-02T15:08:16;1.33;;;0.70;;
793;SDS011;380;48.738;9.214;2024-03-02T15:10:42;1.27;;;0.60;;
793;SDS011;380;48.738;9.214;2024-03-02T15:13:08;1.40;;;0.60;;
793;SDS011;380;48.738;9.214;2024-03-02T15:15:35;0.77;;;0.40;;
793;SDS011;380;48.738;9.214;2024-03-02T15:18:01;1.30;;;0.70;;
793;SDS011;380;48.738;9.214;2024-03-02T15:20:28;1.25;;;0.70;;
793;SDS011;380;48.738;9.214;2024-03-02T15:22:54;1.65;;;0.60;;
793;SDS011;380;48.738;9.214;2024-03-02T15:25:20;1.80;;;0.90;;
793;SDS011;380;48.738;9.214;2024-03-02T15:27:46;1.48;;;0.68;;
793;SDS011;380;48.738;9.214;2024-03-02T15:30:12;1.35;;;0.60;;
793;SDS011;380;48.738;9.214;2024-03-02T15:32:38;1.20;;;0.80;;
793;SDS011;380;48.738;9.214;2024-03-02T15:35:05;1.35;;;0.70;;
793;SDS011;380;48.738;9.214;2024-03-02T15:37:31;0.95;;;0.50;;
793;SDS011;380;48.738;9.214;2024-03-02T15:39:57;1.40;;;0.60;;
793;SDS011;380;48.738;9.214;2024-03-02T15:42:30;1.15;;;0.57;;